sensor_id;sensor_type;location;lat;lon;timestamp;temperature;humidity
19906;DHT22;10115;50.906;4.438;2022-11-15T00:00:42;11.90;99.90
19906;DHT22;10115;50.906;4.438;2022-11-15T00:03:08;12.00;99.90
19906;DHT22;10115;50.906;4.438;2022-11-15T00:05:37;12.10;99.90
19906;DHT22;10115;50.906;4.438;2022-11-15T00:08:02;12.00;99.90
19906;DHT22;10115;50.906;4.438;2022-11-15T00:10:28;12.10;99.90
19906;DHT22;10115;50.906;4.438;2022-11-15T00:12:54;12.10;99.90
19906;DHT22;10115;50.906;4.438;2022-11-15T00:15:19;12.10;99.90
19906;DHT22;10115;50.906;4.438;2022-11-15T00:17:49;12.10;99.90
19906;DHT22;10115;50.906;4.438;2022-11-15T00:20:16;12.20;99.90
19906;DHT22;10115;50.906;4.438;2022-11-15T00:22:48;12.20;99.90
19906;DHT22;10115;50.906;4.438;2022-11-15T00:25:14;12.10;99.90
19906;DHT22;10115;50.906;4.438;2022-11-15T00:27:39;12.20;99.90
19906;DHT22;10115;50.906;4.438;2022-11-15T00:30:06;12.10;99.90
19906;DHT22;10115;50.906;4.438;2022-11-15T00:32:32;12.10;99.90
19906;DHT22;10115;50.906;4.438;2022-11-15T00:34:58;12.10;99.90
19906;DHT22;10115;50.906;4.438;2022-11-15T00:37:24;12.10;99.90
19906;DHT22;10115;50.906;4.438;2022-11-15T00:39:49;12.10;99.90
19906;DHT22;10115;50.906;4.438;2022-11-15T00:42:15;12.10;99.90
19906;DHT22;10115;50.906;4.438;2022-11-15T00:44:40;12.10;99.90
19906;DHT22;10115;50.906;4.438;2022-11-15T00:47:06;12.20;99.90
19906;DHT22;10115;50.906;4.438;2022-11-15T00:49:32;12.10;99.90
19906;DHT22;10115;50.906;4.438;2022-11-15T00:51:57;12.10;99.90
19906;DHT22;10115;50.906;4.438;2022-11-15T00:54:23;12.10;99.90
19906;DHT22;10115;50.906;4.438;2022-11-15T00:56:48;12.10;99.90
19906;DHT22;10115;50.906;4.438;2022-11-15T00:59:17;12.10;99.90
19906;DHT22;10115;50.906;4.438;2022-11-15T01:01:42;12.10;99.90
19906;DHT22;10115;50.906;4.438;2022-11-15T01:04:08;12.10;99.90
19906;DHT22;10115;50.906;4.438;2022-11-15T01:06:34;12.10;99.90
19906;DHT22;10115;50.906;4.438;2022-11-15T01:09:00;12.10;99.90
19906;DHT22;10115;50.906;4.438;2022-11-15T01:11:25;12.20;99.90
19906;DHT22;10115;50.906;4.438;2022-11-15T01:13:51;12.20;99.90
19906;DHT22;10115;50.906;4.438;2022-11-15T01:16:18;12.20;99.90
19906;DHT22;10115;50.906;4.438;2022-11-15T01:18:44;12.30;99.90
19906;DHT22;10115;50.906;4.438;2022-11-15T01:21:13;12.20;99.90
19906;DHT22;10115;50.906;4.438;2022-11-15T01:23:39;12.30;99.90
19906;DHT22;10115;50.906;4.438;2022-11-15T01:26:07;12.20;99.90
19906;DHT22;10115;50.906;4.438;2022-11-15T01:28:36;12.30;99.90
19906;DHT22;10115;50.906;4.438;2022-11-15T01:31:04;12.30;99.90
19906;DHT22;10115;50.906;4.438;2022-11-15T01:33:35;12.20;99.90
19906;DHT22;10115;50.906;4.438;2022-11-15T01:36:06;12.20;99.90
19906;DHT22;10115;50.906;4.438;2022-11-15T01:38:31;12.20;99.90
19906;DHT22;10115;50.906;4.438;2022-11-15T01:41:00;12.20;99.90
19906;DHT22;10115;50.906;4.438;2022-11-15T01:43:31;12.20;99.90
19906;DHT22;10115;50.906;4.438;2022-11-15T01:46:25;12.20;99.90
19906;DHT22;10115;50.906;4.438;2022-11-15T01:48:53;12.20;99.90
19906;DHT22;10115;50.906;4.438;2022-11-15T01:51:22;12.10;99.90
19906;DHT22;10115;50.906;4.438;2022-11-15T01:53:53;12.10;99.90
19906;DHT22;10115;50.906;4.438;2022-11-15T01:56:23;12.10;99.90
19906;DHT22;10115;50.906;4.438;2022-11-15T01:58:52;12.20;99.90
19906;DHT22;10115;50.906;4.438;2022-11-15T02:01:20;12.10;99.90
19906;DHT22;10115;50.906;4.438;2022-11-15T02:03:54;12.10;99.90
19906;DHT22;10115;50.906;4.438;2022-11-15T02:06:22;12.10;99.90
19906;DHT22;10115;50.906;4.438;2022-11-15T02:08:49;12.10;99.90
19906;DHT22;10115;50.906;4.438;2022-11-15T02:11:15;12.10;99.90
19906;DHT22;10115;50.906;4.438;2022-11-15T02:13:41;12.00;99.90
19906;DHT22;10115;50.906;4.438;2022-11-15T02:27:57;11.90;99.90
19906;DHT22;10115;50.906;4.438;2022-11-15T02:35:57;11.80;99.90
19906;DHT22;10115;50.906;4.438;2022-11-15T02:41:09;11.70;99.90
19906;DHT22;10115;50.906;4.438;2022-11-15T02:43:36;11.70;99.90
19906;DHT22;10115;50.906;4.438;2022-11-15T02:46:45;11.70;99.90
19906;DHT22;10115;50.906;4.438;2022-11-15T02:49:33;11.80;99.90
19906;DHT22;10115;50.906;4.438;2022-11-15T02:52:07;11.80;99.90
19906;DHT22;10115;50.906;4.438;2022-11-15T02:54:34;11.80;99.90
19906;DHT22;10115;50.906;4.438;2022-11-15T02:57:03;11.80;99.90
19906;DHT22;10115;50.906;4.438;2022-11-15T03:07:43;11.80;99.90
19906;DHT22;10115;50.906;4.438;2022-11-15T03:10:36;11.80;99.90
19906;DHT22;10115;50.906;4.438;2022-11-15T03:16:05;11.80;99.90
19906;DHT22;10115;50.906;4.438;2022-11-15T03:18:32;11.80;99.90
19906;DHT22;10115;50.906;4.438;2022-11-15T03:21:04;11.80;99.90
19906;DHT22;10115;50.906;4.438;2022-11-15T03:23:31;11.80;99.90
19906;DHT22;10115;50.906;4.438;2022-11-15T03:25:59;11.70;99.90
19906;DHT22;10115;50.906;4.438;2022-11-15T03:28:47;11.80;99.90
19906;DHT22;10115;50.906;4.438;2022-11-15T03:31:15;11.70;99.90
19906;DHT22;10115;50.906;4.438;2022-11-15T03:34:04;11.70;99.90
19906;DHT22;10115;50.906;4.438;2022-11-15T03:36:34;11.70;99.90
19906;DHT22;10115;50.906;4.438;2022-11-15T03:39:02;11.70;99.90
19906;DHT22;10115;50.906;4.438;2022-11-15T03:42:04;11.70;99.90
19906;DHT22;10115;50.906;4.438;2022-11-15T03:44:59;11.70;99.90
19906;DHT22;10115;50.906;4.438;2022-11-15T03:47:40;11.70;99.90
19906;DHT22;10115;50.906;4.438;2022-11-15T03:50:15;11.70;99.90
19906;DHT22;10115;50.906;4.438;2022-11-15T03:52:42;11.70;99.90
19906;DHT22;10115;50.906;4.438;2022-11-15T03:55:13;11.60;99.90
19906;DHT22;10115;50.906;4.438;2022-11-15T03:57:39;11.70;99.90
19906;DHT22;10115;50.906;4.438;2022-11-15T04:00:05;11.70;99.90
19906;DHT22;10115;50.906;4.438;2022-11-15T04:02:31;11.70;99.90
19906;DHT22;10115;50.906;4.438;2022-11-15T04:04:56;11.70;99.90
19906;DHT22;10115;50.906;4.438;2022-11-15T04:07:25;11.70;99.90
19906;DHT22;10115;50.906;4.438;2022-11-15T04:09:50;11.70;99.90
19906;DHT22;10115;50.906;4.438;2022-11-15T04:12:29;11.60;99.90
19906;DHT22;10115;50.906;4.438;2022-11-15T04:17:41;11.60;99.90
19906;DHT22;10115;50.906;4.438;2022-11-15T04:23:01;11.50;99.90
19906;DHT22;10115;50.906;4.438;2022-11-15T04:25:46;11.50;99.90
19906;DHT22;10115;50.906;4.438;2022-11-15T04:28:16;11.50;99.90
19906;DHT22;10115;50.906;4.438;2022-11-15T04:30:42;11.50;99.90
19906;DHT22;10115;50.906;4.438;2022-11-15T04:33:08;11.50;99.90
19906;DHT22;10115;50.906;4.438;2022-11-15T04:35:33;11.60;99.90
19906;DHT22;10115;50.906;4.438;2022-11-15T04:38:00;11.50;99.90
19906;DHT22;10115;50.906;4.438;2022-11-15T04:40:28;11.50;99.90
19906;DHT22;10115;50.906;4.438;2022-11-15T04:42:55;11.60;99.90
19906;DHT22;10115;50.906;4.438;2022-11-15T04:45:21;11.50;99.90
19906;DHT22;10115;50.906;4.438;2022-11-15T04:47:47;11.40;99.90
19906;DHT22;10115;50.906;4.438;2022-11-15T04:50:13;11.40;99.90
19906;DHT22;10115;50.906;4.438;2022-11-15T04:52:53;11.40;99.90
19906;DHT22;10115;50.906;4.438;2022-11-15T04:55:19;11.30;99.90
19906;DHT22;10115;50.906;4.438;2022-11-15T04:57:45;11.30;99.90
19906;DHT22;10115;50.906;4.438;2022-11-15T05:00:13;11.20;99.90
19906;DHT22;10115;50.906;4.438;2022-11-15T05:02:39;11.20;99.90
19906;DHT22;10115;50.906;4.438;2022-11-15T05:05:24;11.20;99.90
19906;DHT22;10115;50.906;4.438;2022-11-15T05:07:53;11.20;99.90
19906;DHT22;10115;50.906;4.438;2022-11-15T05:10:18;11.20;99.90
19906;DHT22;10115;50.906;4.438;2022-11-15T05:12:44;11.20;99.90
19906;DHT22;10115;50.906;4.438;2022-11-15T05:15:12;11.10;99.90
19906;DHT22;10115;50.906;4.438;2022-11-15T05:17:38;11.10;99.90
19906;DHT22;10115;50.906;4.438;2022-11-15T05:20:03;11.10;99.90
19906;DHT22;10115;50.906;4.438;2022-11-15T05:22:29;11.00;99.90
19906;DHT22;10115;50.906;4.438;2022-11-15T05:24:55;10.90;99.90
19906;DHT22;10115;50.906;4.438;2022-11-15T05:27:20;11.00;99.90
19906;DHT22;10115;50.906;4.438;2022-11-15T05:29:46;11.00;99.90
19906;DHT22;10115;50.906;4.438;2022-11-15T05:32:12;11.00;99.90
19906;DHT22;10115;50.906;4.438;2022-11-15T05:34:41;10.90;99.90
19906;DHT22;10115;50.906;4.438;2022-11-15T05:37:06;10.90;99.90
19906;DHT22;10115;50.906;4.438;2022-11-15T05:39:32;10.90;99.90
19906;DHT22;10115;50.906;4.438;2022-11-15T05:42:13;10.90;99.90
19906;DHT22;10115;50.906;4.438;2022-11-15T05:44:47;10.90;99.90
19906;DHT22;10115;50.906;4.438;2022-11-15T05:47:17;10.90;99.90
19906;DHT22;10115;50.906;4.438;2022-11-15T05:49:47;10.80;99.90
19906;DHT22;10115;50.906;4.438;2022-11-15T05:52:17;10.70;99.90
19906;DHT22;10115;50.906;4.438;2022-11-15T05:54:44;10.70;99.90
19906;DHT22;10115;50.906;4.438;2022-11-15T05:57:13;10.70;99.90
19906;DHT22;10115;50.906;4.438;2022-11-15T05:59:38;10.70;99.90
19906;DHT22;10115;50.906;4.438;2022-11-15T06:02:06;10.60;99.90
19906;DHT22;10115;50.906;4.438;2022-11-15T06:04:31;10.50;99.90
19906;DHT22;10115;50.906;4.438;2022-11-15T06:06:58;10.50;99.90
19906;DHT22;10115;50.906;4.438;2022-11-15T06:09:24;10.50;99.90
19906;DHT22;10115;50.906;4.438;2022-11-15T06:11:49;10.50;99.90
19906;DHT22;10115;50.906;4.438;2022-11-15T06:14:15;10.60;99.90
19906;DHT22;10115;50.906;4.438;2022-11-15T06:16:41;10.70;99.90
19906;DHT22;10115;50.906;4.438;2022-11-15T06:19:07;10.70;99.90
19906;DHT22;10115;50.906;4.438;2022-11-15T06:21:35;10.50;99.90
19906;DHT22;10115;50.906;4.438;2022-11-15T06:24:01;10.50;99.90
19906;DHT22;10115;50.906;4.438;2022-11-15T06:26:26;10.50;99.90
19906;DHT22;10115;50.906;4.438;2022-11-15T06:28:52;10.40;99.90
19906;DHT22;10115;50.906;4.438;2022-11-15T06:31:18;10.30;99.90
19906;DHT22;10115;50.906;4.438;2022-11-15T06:33:43;10.30;99.90
19906;DHT22;10115;50.906;4.438;2022-11-15T06:36:11;10.30;99.90
19906;DHT22;10115;50.906;4.438;2022-11-15T06:38:39;10.40;99.90
19906;DHT22;10115;50.906;4.438;2022-11-15T06:41:09;10.30;99.90
19906;DHT22;10115;50.906;4.438;2022-11-15T06:43:35;10.20;99.90
19906;DHT22;10115;50.906;4.438;2022-11-15T06:46:02;10.10;99.90
19906;DHT22;10115;50.906;4.438;2022-11-15T06:48:32;10.00;99.90
19906;DHT22;10115;50.906;4.438;2022-11-15T06:51:00;9.90;99.90
19906;DHT22;10115;50.906;4.438;2022-11-15T06:53:26;10.00;99.90
19906;DHT22;10115;50.906;4.438;2022-11-15T06:55:52;10.00;99.90
19906;DHT22;10115;50.906;4.438;2022-11-15T06:58:21;10.00;99.90
19906;DHT22;10115;50.906;4.438;2022-11-15T07:00:47;10.00;99.90
19906;DHT22;10115;50.906;4.438;2022-11-15T07:03:12;10.00;99.90
19906;DHT22;10115;50.906;4.438;2022-11-15T07:05:38;9.90;99.90
19906;DHT22;10115;50.906;4.438;2022-11-15T07:08:04;10.00;99.90
19906;DHT22;10115;50.906;4.438;2022-11-15T07:10:30;9.90;99.90
19906;DHT22;10115;50.906;4.438;2022-11-15T07:12:56;9.90;99.90
19906;DHT22;10115;50.906;4.438;2022-11-15T07:15:24;9.80;99.90
19906;DHT22;10115;50.906;4.438;2022-11-15T07:17:53;9.80;99.90
19906;DHT22;10115;50.906;4.438;2022-11-15T07:20:18;9.90;99.90
19906;DHT22;10115;50.906;4.438;2022-11-15T07:22:44;9.90;99.90
19906;DHT22;10115;50.906;4.438;2022-11-15T07:25:10;9.90;99.90
19906;DHT22;10115;50.906;4.438;2022-11-15T07:27:36;9.80;99.90
19906;DHT22;10115;50.906;4.438;2022-11-15T07:30:03;9.70;99.90
19906;DHT22;10115;50.906;4.438;2022-11-15T07:32:29;9.70;99.90
19906;DHT22;10115;50.906;4.438;2022-11-15T07:34:54;9.70;99.90
19906;DHT22;10115;50.906;4.438;2022-11-15T07:37:20;9.70;99.90
19906;DHT22;10115;50.906;4.438;2022-11-15T07:39:46;9.70;99.90
19906;DHT22;10115;50.906;4.438;2022-11-15T07:42:11;9.80;99.90
19906;DHT22;10115;50.906;4.438;2022-11-15T07:44:56;9.80;99.90
19906;DHT22;10115;50.906;4.438;2022-11-15T07:47:21;9.90;99.90
19906;DHT22;10115;50.906;4.438;2022-11-15T07:49:47;10.00;99.90
19906;DHT22;10115;50.906;4.438;2022-11-15T07:52:13;10.00;99.90
19906;DHT22;10115;50.906;4.438;2022-11-15T07:54:39;9.90;99.90
19906;DHT22;10115;50.906;4.438;2022-11-15T07:57:05;9.90;99.90
19906;DHT22;10115;50.906;4.438;2022-11-15T07:59:32;9.90;99.90
19906;DHT22;10115;50.906;4.438;2022-11-15T08:02:00;9.90;99.90
19906;DHT22;10115;50.906;4.438;2022-11-15T08:04:25;10.00;99.90
19906;DHT22;10115;50.906;4.438;2022-11-15T08:06:51;9.90;99.90
19906;DHT22;10115;50.906;4.438;2022-11-15T08:09:17;10.00;99.90
19906;DHT22;10115;50.906;4.438;2022-11-15T08:11:42;10.00;99.90
19906;DHT22;10115;50.906;4.438;2022-11-15T08:14:08;10.00;99.90
19906;DHT22;10115;50.906;4.438;2022-11-15T08:16:34;10.00;99.90
19906;DHT22;10115;50.906;4.438;2022-11-15T08:19:03;10.10;99.90
19906;DHT22;10115;50.906;4.438;2022-11-15T08:21:28;10.20;99.90
19906;DHT22;10115;50.906;4.438;2022-11-15T08:23:54;10.10;99.90
19906;DHT22;10115;50.906;4.438;2022-11-15T08:26:22;10.10;99.90
19906;DHT22;10115;50.906;4.438;2022-11-15T08:28:50;10.20;99.90
19906;DHT22;10115;50.906;4.438;2022-11-15T08:31:17;10.20;99.90
19906;DHT22;10115;50.906;4.438;2022-11-15T08:33:44;10.20;99.90
19906;DHT22;10115;50.906;4.438;2022-11-15T08:36:14;10.30;99.90
19906;DHT22;10115;50.906;4.438;2022-11-15T08:38:41;10.30;99.90
19906;DHT22;10115;50.906;4.438;2022-11-15T08:41:10;10.40;99.90
19906;DHT22;10115;50.906;4.438;2022-11-15T08:43:37;10.50;99.90
19906;DHT22;10115;50.906;4.438;2022-11-15T08:46:07;10.60;99.90
19906;DHT22;10115;50.906;4.438;2022-11-15T08:48:34;10.60;99.90
19906;DHT22;10115;50.906;4.438;2022-11-15T08:50:59;10.60;99.90
19906;DHT22;10115;50.906;4.438;2022-11-15T08:53:25;10.50;99.90
19906;DHT22;10115;50.906;4.438;2022-11-15T08:55:51;10.50;99.90
19906;DHT22;10115;50.906;4.438;2022-11-15T08:58:17;10.50;99.90
19906;DHT22;10115;50.906;4.438;2022-11-15T09:00:42;10.50;99.90
19906;DHT22;10115;50.906;4.438;2022-11-15T09:03:08;10.50;99.90
19906;DHT22;10115;50.906;4.438;2022-11-15T09:05:36;10.60;99.90
19906;DHT22;10115;50.906;4.438;2022-11-15T09:08:03;10.70;99.90
19906;DHT22;10115;50.906;4.438;2022-11-15T09:10:28;10.80;99.90
19906;DHT22;10115;50.906;4.438;2022-11-15T09:12:57;10.90;99.90
19906;DHT22;10115;50.906;4.438;2022-11-15T09:15:25;10.90;99.90
19906;DHT22;10115;50.906;4.438;2022-11-15T09:17:51;11.00;99.90
19906;DHT22;10115;50.906;4.438;2022-11-15T09:20:16;11.00;99.90
19906;DHT22;10115;50.906;4.438;2022-11-15T09:22:42;11.00;99.90
19906;DHT22;10115;50.906;4.438;2022-11-15T09:25:10;10.90;99.90
19906;DHT22;10115;50.906;4.438;2022-11-15T09:27:36;10.80;99.90
19906;DHT22;10115;50.906;4.438;2022-11-15T09:30:02;10.90;99.90
19906;DHT22;10115;50.906;4.438;2022-11-15T09:32:33;10.90;99.90
19906;DHT22;10115;50.906;4.438;2022-11-15T09:34:59;11.00;99.90
19906;DHT22;10115;50.906;4.438;2022-11-15T09:37:25;11.10;99.90
19906;DHT22;10115;50.906;4.438;2022-11-15T09:39:50;11.20;99.90
19906;DHT22;10115;50.906;4.438;2022-11-15T09:42:32;11.40;99.90
19906;DHT22;10115;50.906;4.438;2022-11-15T09:50:47;11.60;99.90
19906;DHT22;10115;50.906;4.438;2022-11-15T09:53:37;11.50;99.90
19906;DHT22;10115;50.906;4.438;2022-11-15T09:56:16;11.50;99.90
19906;DHT22;10115;50.906;4.438;2022-11-15T09:59:03;11.50;99.90
19906;DHT22;10115;50.906;4.438;2022-11-15T10:01:54;11.60;99.90
19906;DHT22;10115;50.906;4.438;2022-11-15T10:04:23;11.80;99.90
19906;DHT22;10115;50.906;4.438;2022-11-15T10:12:24;11.80;99.90
19906;DHT22;10115;50.906;4.438;2022-11-15T10:15:05;11.90;99.90
19906;DHT22;10115;50.906;4.438;2022-11-15T10:22:59;12.00;99.90
19906;DHT22;10115;50.906;4.438;2022-11-15T10:25:29;12.00;99.90
19906;DHT22;10115;50.906;4.438;2022-11-15T10:28:22;12.10;99.90
19906;DHT22;10115;50.906;4.438;2022-11-15T10:30:53;12.20;99.90
19906;DHT22;10115;50.906;4.438;2022-11-15T10:41:18;12.30;99.90
19906;DHT22;10115;50.906;4.438;2022-11-15T10:43:44;12.40;99.90
19906;DHT22;10115;50.906;4.438;2022-11-15T10:46:23;12.30;99.90
19906;DHT22;10115;50.906;4.438;2022-11-15T10:48:50;12.30;99.90
19906;DHT22;10115;50.906;4.438;2022-11-15T10:51:27;12.30;99.90
19906;DHT22;10115;50.906;4.438;2022-11-15T10:53:56;12.40;99.90
19906;DHT22;10115;50.906;4.438;2022-11-15T10:56:24;12.70;99.90
19906;DHT22;10115;50.906;4.438;2022-11-15T10:58:54;12.60;99.90
19906;DHT22;10115;50.906;4.438;2022-11-15T11:01:26;12.60;99.90
19906;DHT22;10115;50.906;4.438;2022-11-15T11:04:05;12.60;99.90
19906;DHT22;10115;50.906;4.438;2022-11-15T11:06:54;12.60;99.90
19906;DHT22;10115;50.906;4.438;2022-11-15T11:09:33;12.60;99.90
19906;DHT22;10115;50.906;4.438;2022-11-15T11:12:04;12.50;99.90
19906;DHT22;10115;50.906;4.438;2022-11-15T11:14:32;12.60;99.90
19906;DHT22;10115;50.906;4.438;2022-11-15T11:20:33;12.60;99.90
19906;DHT22;10115;50.906;4.438;2022-11-15T11:28:33;12.80;99.90
19906;DHT22;10115;50.906;4.438;2022-11-15T11:34:02;12.90;99.90
19906;DHT22;10115;50.906;4.438;2022-11-15T11:36:37;12.90;99.90
19906;DHT22;10115;50.906;4.438;2022-11-15T11:39:26;13.00;99.90
19906;DHT22;10115;50.906;4.438;2022-11-15T11:45:14;13.10;99.90
19906;DHT22;10115;50.906;4.438;2022-11-15T11:48:38;13.10;99.90
19906;DHT22;10115;50.906;4.438;2022-11-15T11:50:37;13.20;99.90
19906;DHT22;10115;50.906;4.438;2022-11-15T11:53:14;13.20;99.90
19906;DHT22;10115;50.906;4.438;2022-11-15T11:55:47;13.20;99.90
19906;DHT22;10115;50.906;4.438;2022-11-15T11:58:38;13.20;99.90
19906;DHT22;10115;50.906;4.438;2022-11-15T12:03:48;13.20;99.90
19906;DHT22;10115;50.906;4.438;2022-11-15T12:06:35;13.30;99.90
19906;DHT22;10115;50.906;4.438;2022-11-15T12:09:22;13.30;99.90
19906;DHT22;10115;50.906;4.438;2022-11-15T12:12:23;13.30;99.90
19906;DHT22;10115;50.906;4.438;2022-11-15T12:17:34;13.30;99.90
19906;DHT22;10115;50.906;4.438;2022-11-15T12:20:03;13.40;99.90
19906;DHT22;10115;50.906;4.438;2022-11-15T12:28:01;13.50;99.90
19906;DHT22;10115;50.906;4.438;2022-11-15T12:31:01;13.40;99.90
19906;DHT22;10115;50.906;4.438;2022-11-15T12:33:40;13.40;99.90
19906;DHT22;10115;50.906;4.438;2022-11-15T12:38:57;13.30;99.90
19906;DHT22;10115;50.906;4.438;2022-11-15T12:41:29;13.30;99.90
19906;DHT22;10115;50.906;4.438;2022-11-15T12:43:58;13.20;99.90
19906;DHT22;10115;50.906;4.438;2022-11-15T12:49:09;13.30;99.90
19906;DHT22;10115;50.906;4.438;2022-11-15T13:04:47;13.80;99.90
19906;DHT22;10115;50.906;4.438;2022-11-15T13:10:07;13.80;99.90
19906;DHT22;10115;50.906;4.438;2022-11-15T13:22:46;14.00;99.90
19906;DHT22;10115;50.906;4.438;2022-11-15T13:28:00;13.80;99.90
19906;DHT22;10115;50.906;4.438;2022-11-15T13:30:30;13.50;99.90
19906;DHT22;10115;50.906;4.438;2022-11-15T13:32:59;13.50;99.90
19906;DHT22;10115;50.906;4.438;2022-11-15T13:35:28;13.50;99.90
19906;DHT22;10115;50.906;4.438;2022-11-15T13:37:55;13.50;99.90
19906;DHT22;10115;50.906;4.438;2022-11-15T13:40:28;13.50;99.90
19906;DHT22;10115;50.906;4.438;2022-11-15T13:42:56;13.40;99.90
19906;DHT22;10115;50.906;4.438;2022-11-15T13:45:23;13.40;99.90
19906;DHT22;10115;50.906;4.438;2022-11-15T13:47:57;13.40;99.90
19906;DHT22;10115;50.906;4.438;2022-11-15T13:50:27;13.40;99.90
19906;DHT22;10115;50.906;4.438;2022-11-15T13:52:57;13.50;99.90
19906;DHT22;10115;50.906;4.438;2022-11-15T13:55:24;13.50;99.90
19906;DHT22;10115;50.906;4.438;2022-11-15T13:58:02;13.50;99.90
19906;DHT22;10115;50.906;4.438;2022-11-15T14:00:42;13.50;99.90
19906;DHT22;10115;50.906;4.438;2022-11-15T14:03:19;13.50;99.90
19906;DHT22;10115;50.906;4.438;2022-11-15T14:08:31;13.50;99.90
19906;DHT22;10115;50.906;4.438;2022-11-15T14:11:11;13.50;99.90
19906;DHT22;10115;50.906;4.438;2022-11-15T14:13:38;13.50;99.90
19906;DHT22;10115;50.906;4.438;2022-11-15T14:16:21;13.50;99.90
19906;DHT22;10115;50.906;4.438;2022-11-15T14:18:52;13.50;99.90
19906;DHT22;10115;50.906;4.438;2022-11-15T14:21:19;13.50;99.90
19906;DHT22;10115;50.906;4.438;2022-11-15T14:23:45;13.50;99.90
19906;DHT22;10115;50.906;4.438;2022-11-15T14:26:29;13.50;99.90
19906;DHT22;10115;50.906;4.438;2022-11-15T14:29:20;13.50;99.90
19906;DHT22;10115;50.906;4.438;2022-11-15T14:31:43;13.50;99.90
19906;DHT22;10115;50.906;4.438;2022-11-15T14:34:11;13.30;99.90
19906;DHT22;10115;50.906;4.438;2022-11-15T14:36:37;13.30;99.90
19906;DHT22;10115;50.906;4.438;2022-11-15T14:39:06;13.30;99.90
19906;DHT22;10115;50.906;4.438;2022-11-15T14:41:36;13.20;99.90
19906;DHT22;10115;50.906;4.438;2022-11-15T14:44:04;13.10;99.90
19906;DHT22;10115;50.906;4.438;2022-11-15T14:46:30;13.10;99.90
19906;DHT22;10115;50.906;4.438;2022-11-15T14:48:56;13.00;99.90
19906;DHT22;10115;50.906;4.438;2022-11-15T14:51:22;12.90;99.90
19906;DHT22;10115;50.906;4.438;2022-11-15T14:53:48;12.80;99.90
19906;DHT22;10115;50.906;4.438;2022-11-15T14:56:15;12.80;99.90
19906;DHT22;10115;50.906;4.438;2022-11-15T14:58:41;12.80;99.90
19906;DHT22;10115;50.906;4.438;2022-11-15T15:01:25;12.80;99.90
19906;DHT22;10115;50.906;4.438;2022-11-15T15:03:52;12.80;99.90
19906;DHT22;10115;50.906;4.438;2022-11-15T15:06:21;12.80;99.90
19906;DHT22;10115;50.906;4.438;2022-11-15T15:08:47;12.70;99.90
19906;DHT22;10115;50.906;4.438;2022-11-15T15:11:30;12.70;99.90
19906;DHT22;10115;50.906;4.438;2022-11-15T15:13:57;12.70;99.90
19906;DHT22;10115;50.906;4.438;2022-11-15T15:16:25;12.70;99.90
19906;DHT22;10115;50.906;4.438;2022-11-15T15:18:52;12.70;99.90
19906;DHT22;10115;50.906;4.438;2022-11-15T15:21:26;12.80;99.90
19906;DHT22;10115;50.906;4.438;2022-11-15T15:23:53;12.70;99.90
19906;DHT22;10115;50.906;4.438;2022-11-15T15:26:22;12.60;99.90
19906;DHT22;10115;50.906;4.438;2022-11-15T15:28:48;12.60;99.90
19906;DHT22;10115;50.906;4.438;2022-11-15T15:31:16;12.60;99.90
19906;DHT22;10115;50.906;4.438;2022-11-15T15:33:42;12.60;99.90
19906;DHT22;10115;50.906;4.438;2022-11-15T15:36:11;12.50;99.90
19906;DHT22;10115;50.906;4.438;2022-11-15T15:38:37;12.50;99.90
19906;DHT22;10115;50.906;4.438;2022-11-15T15:41:11;12.40;99.90
19906;DHT22;10115;50.906;4.438;2022-11-15T15:43:37;12.40;99.90
19906;DHT22;10115;50.906;4.438;2022-11-15T15:46:05;12.40;99.90
19906;DHT22;10115;50.906;4.438;2022-11-15T15:48:33;12.40;99.90
19906;DHT22;10115;50.906;4.438;2022-11-15T15:50:59;12.30;99.90
19906;DHT22;10115;50.906;4.438;2022-11-15T15:53:24;12.30;99.90
19906;DHT22;10115;50.906;4.438;2022-11-15T15:55:53;12.30;99.90
19906;DHT22;10115;50.906;4.438;2022-11-15T15:58:18;12.30;99.90
19906;DHT22;10115;50.906;4.438;2022-11-15T16:00:44;12.30;99.90
19906;DHT22;10115;50.906;4.438;2022-11-15T16:03:10;12.30;99.90
19906;DHT22;10115;50.906;4.438;2022-11-15T16:05:35;12.20;99.90
19906;DHT22;10115;50.906;4.438;2022-11-15T16:08:02;12.20;99.90
19906;DHT22;10115;50.906;4.438;2022-11-15T16:10:31;12.20;99.90
19906;DHT22;10115;50.906;4.438;2022-11-15T16:12:57;12.10;99.90
19906;DHT22;10115;50.906;4.438;2022-11-15T16:15:26;12.10;99.90
19906;DHT22;10115;50.906;4.438;2022-11-15T16:17:53;12.10;99.90
19906;DHT22;10115;50.906;4.438;2022-11-15T16:22:54;12.10;99.90
19906;DHT22;10115;50.906;4.438;2022-11-15T16:25:25;12.10;99.90
19906;DHT22;10115;50.906;4.438;2022-11-15T16:27:54;12.10;99.90
19906;DHT22;10115;50.906;4.438;2022-11-15T16:30:21;12.10;99.90
19906;DHT22;10115;50.906;4.438;2022-11-15T16:32:50;12.20;99.90
19906;DHT22;10115;50.906;4.438;2022-11-15T16:35:16;12.10;99.90
19906;DHT22;10115;50.906;4.438;2022-11-15T16:37:45;12.10;99.90
19906;DHT22;10115;50.906;4.438;2022-11-15T16:42:46;12.10;99.90
19906;DHT22;10115;50.906;4.438;2022-11-15T16:45:12;12.10;99.90
19906;DHT22;10115;50.906;4.438;2022-11-15T16:47:39;12.20;99.90
19906;DHT22;10115;50.906;4.438;2022-11-15T16:50:05;12.10;99.90
19906;DHT22;10115;50.906;4.438;2022-11-15T16:52:30;12.10;99.90
19906;DHT22;10115;50.906;4.438;2022-11-15T16:54:56;12.20;99.90
19906;DHT22;10115;50.906;4.438;2022-11-15T16:57:22;12.10;99.90
19906;DHT22;10115;50.906;4.438;2022-11-15T16:59:47;12.10;99.90
19906;DHT22;10115;50.906;4.438;2022-11-15T17:02:13;12.10;99.90
19906;DHT22;10115;50.906;4.438;2022-11-15T17:04:42;12.10;99.90
19906;DHT22;10115;50.906;4.438;2022-11-15T17:07:08;12.10;99.90
19906;DHT22;10115;50.906;4.438;2022-11-15T17:09:33;12.10;99.90
19906;DHT22;10115;50.906;4.438;2022-11-15T17:11:59;12.10;99.90
19906;DHT22;10115;50.906;4.438;2022-11-15T17:14:25;12.10;99.90
19906;DHT22;10115;50.906;4.438;2022-11-15T17:16:53;12.10;99.90
19906;DHT22;10115;50.906;4.438;2022-11-15T17:19:20;12.10;99.90
19906;DHT22;10115;50.906;4.438;2022-11-15T17:21:46;12.10;99.90
19906;DHT22;10115;50.906;4.438;2022-11-15T17:24:14;12.10;99.90
19906;DHT22;10115;50.906;4.438;2022-11-15T17:26:40;12.10;99.90
19906;DHT22;10115;50.906;4.438;2022-11-15T17:29:07;12.10;99.90
19906;DHT22;10115;50.906;4.438;2022-11-15T17:31:37;12.10;99.90
19906;DHT22;10115;50.906;4.438;2022-11-15T17:34:07;12.10;99.90
19906;DHT22;10115;50.906;4.438;2022-11-15T17:36:33;12.20;99.90
19906;DHT22;10115;50.906;4.438;2022-11-15T17:38:59;12.20;99.90
19906;DHT22;10115;50.906;4.438;2022-11-15T17:41:26;12.20;99.90
19906;DHT22;10115;50.906;4.438;2022-11-15T17:43:51;12.20;99.90
19906;DHT22;10115;50.906;4.438;2022-11-15T17:46:19;12.20;99.90
19906;DHT22;10115;50.906;4.438;2022-11-15T17:48:46;12.30;99.90
19906;DHT22;10115;50.906;4.438;2022-11-15T17:51:17;12.30;99.90
19906;DHT22;10115;50.906;4.438;2022-11-15T17:53:46;12.20;99.90
19906;DHT22;10115;50.906;4.438;2022-11-15T17:56:14;12.20;99.90